Decoded Metar for LEMG (MALAGA in SPAIN) (IATA:AGP) | Meteo·Mobile Aviation Weather
aviador You're here:

LEMG Decoded Metar

MALAGA in SPAIN
Report Time2019-12-12 12:30:00
UTC Time2019-12-12 13:01:52
Flight Rules vfr VFR
Wind320° at 13 Gusting to 24 kt
W.Decomp.*RWY 31: 12.8 kt HW 2.5 kt RCW
RWY 30: 12.1 kt HW 4.7 kt RCW
Visibility9999 m
Phenomena:N/A
Clouds:Few 030 Hf
Expected CloudBase > 4,000 ft AGL from Temp-Dew spread
CeilingNone
Temp15°C (ISA 0)
Dew Point05°C (51% RH)
AAT9.2°C
QNH1024 hPa
Density Alt-223 ft
Elevation23 ft
Report Wrong Elevation
Raw Report
LEMG 121230Z 32013G24KT 9999 FEW030 15/05 Q1024 NOSIG=

Extra information for LEMG:More info

Metar Taf Metar & Taf Last 4 Metars F.Rules Stats Wind Profile Meteogram Temp Stats Airport Information Weather charts Add Link Nearby VenuesMetar ALERT Operation Metar Decoded Social comments